Terminal Aerodrome Forecast
Issued by NWS Wakefield, VA

Home | Current Version | Previous Version | Text Only | Print | Product List | Glossary On
Versions: 1 2 3 4 5 6 7 8 9 10 11 12 13 14 15
000
FTUS41 KAKQ 231734
TAFSBY
TAF
KSBY 231734Z 2318/2418 22012KT P6SM SCT120
     FM232300 18007KT P6SM SCT200
     FM240500 VRB03KT P6SM SCT150
     FM241000 VRB03KT 1SM BR SCT100
     FM241300 18007KT P6SM SCT090=

USA.gov is the U.S. government's official web portal to all federal, state and local government web resources and services.